Terminal Aerodrome Forecast
Issued by NWS

Home | Current Version | Previous Version | Text Only | Print | Product List | Glossary On
Versions: 1 2 3 4 5 6 7 8 9 10 11 12 13 14 15 16 17 18 19 20 21 22 23 24 25 26 27 28
000
FTUS45 KBOU 252338
TAFAPA
TAF
KAPA 252338Z 2600/2624 27010KT P6SM VCTS SCT080CB BKN100 OVC150
      TEMPO 2600/2601 VRB15G30KT -TSRA BKN070CB
     FM260130 35012G20KT P6SM -SHRA FEW020 SCT050 OVC120
     FM260700 30009KT P6SM SCT080 BKN120
     FM261300 36010KT P6SM BKN025 OVC080
     FM262000 04010KT P6SM BKN040 OVC060
      TEMPO 2621/2624 VRB15G25KT 5SM TSRA BKN030CB=

USA.gov is the U.S. government's official web portal to all federal, state and local government web resources and services.